Time;durP1;ratioP1;P1;durP2;ratioP2;P2;SDS_P1;SDS_P2;PMS_P1;PMS_P2;Temp;Humidity;BMP_temperature;BMP_pressure;BME280_temperature;BME280_humidity;BME280_pressure;Samples;Min_cycle;Max_cycle;Signal;HPM_P1;HPM_P2
2021/12/11 00:01:18;;;;;;;14.55;9.98;;;3.80;99.90;;;;;;5054524;28;20597;-75
2021/12/11 00:04:07;;;;;;;15.75;11.45;;;3.80;99.90;;;;;;5050878;28;20204;-75
2021/12/11 00:07:14;;;;;;;15.40;11.05;;;3.70;99.90;;;;;;5053783;28;20251;-74
2021/12/11 00:10:11;;;;;;;15.35;11.05;;;3.60;99.90;;;;;;5055183;28;20232;-75
2021/12/11 00:13:00;;;;;;;16.95;11.30;;;3.60;99.90;;;;;;5056158;28;20350;-75
2021/12/11 00:15:48;;;;;;;14.85;11.10;;;3.70;99.90;;;;;;5054011;28;20441;-74
2021/12/11 00:18:34;;;;;;;13.77;10.65;;;3.70;99.90;;;;;;5055002;28;20279;-75
2021/12/11 00:21:22;;;;;;;14.65;10.90;;;3.70;99.90;;;;;;5056738;28;20287;-75
2021/12/11 00:24:12;;;;;;;15.65;10.60;;;3.80;99.90;;;;;;5050072;28;20300;-75
2021/12/11 00:27:03;;;;;;;13.40;9.85;;;3.80;99.90;;;;;;5047309;28;20283;-75
2021/12/11 00:29:49;;;;;;;16.15;9.88;;;3.60;99.90;;;;;;5050770;28;20606;-74
2021/12/11 00:32:37;;;;;;;17.23;11.63;;;3.60;99.90;;;;;;5058731;28;20205;-74
2021/12/11 00:35:23;;;;;;;15.55;10.38;;;3.60;99.90;;;;;;5049801;28;20329;-75
2021/12/11 00:38:12;;;;;;;13.93;10.48;;;3.60;99.90;;;;;;5051971;28;20216;-74
2021/12/11 00:40:57;;;;;;;15.98;10.60;;;3.60;99.90;;;;;;5052107;28;20240;-74
2021/12/11 00:43:44;;;;;;;16.15;10.68;;;3.60;99.90;;;;;;5050469;28;20296;-74
2021/12/11 00:46:32;;;;;;;14.93;11.05;;;3.50;99.90;;;;;;5052633;28;20251;-74
2021/12/11 00:49:21;;;;;;;16.77;11.80;;;3.40;99.90;;;;;;5052017;28;20224;-74
2021/12/11 00:52:07;;;;;;;19.23;13.52;;;3.40;99.90;;;;;;5054057;28;20267;-75
2021/12/11 00:54:53;;;;;;;19.85;13.55;;;3.30;99.90;;;;;;5051084;28;20214;-74
2021/12/11 00:57:38;;;;;;;17.25;12.65;;;3.40;99.90;;;;;;5049997;28;20201;-75
2021/12/11 01:00:25;;;;;;;23.13;14.25;;;3.40;99.90;;;;;;5049751;28;20216;-74
2021/12/11 01:03:13;;;;;;;22.23;15.23;;;3.30;99.90;;;;;;5048258;28;20577;-75
2021/12/11 01:06:02;;;;;;;24.48;15.18;;;3.20;99.90;;;;;;5057677;28;20257;-75
2021/12/11 01:08:54;;;;;;;23.55;16.15;;;3.20;99.90;;;;;;5053718;28;20729;-75
2021/12/11 01:11:53;;;;;;;24.77;16.10;;;3.20;99.90;;;;;;5052437;28;20717;-74
2021/12/11 01:14:50;;;;;;;25.13;16.20;;;3.30;99.90;;;;;;5049919;28;20594;-75
2021/12/11 01:17:43;;;;;;;20.90;14.20;;;3.40;99.90;;;;;;5052550;28;20209;-75
2021/12/11 01:20:36;;;;;;;29.50;19.98;;;3.50;99.90;;;;;;5056138;28;20341;-75
2021/12/11 01:23:34;;;;;;;24.95;18.40;;;3.60;99.90;;;;;;5043258;28;20282;-74
2021/12/11 01:26:21;;;;;;;23.67;16.42;;;3.60;99.90;;;;;;5053009;28;20216;-75
2021/12/11 01:29:07;;;;;;;25.60;16.75;;;3.60;99.90;;;;;;5052967;28;20267;-75
2021/12/11 01:31:56;;;;;;;28.13;16.70;;;3.50;99.90;;;;;;5052926;28;20279;-74
2021/12/11 01:34:43;;;;;;;31.33;18.65;;;3.50;99.90;;;;;;5054971;28;20287;-74
2021/12/11 01:37:29;;;;;;;26.63;16.00;;;3.60;99.90;;;;;;5050100;28;20205;-75
2021/12/11 01:40:20;;;;;;;26.50;16.33;;;3.60;99.90;;;;;;5056887;28;20244;-75
2021/12/11 01:43:08;;;;;;;30.33;17.88;;;3.70;99.90;;;;;;5051357;28;20197;-75
2021/12/11 01:45:57;;;;;;;30.52;18.13;;;3.80;99.90;;;;;;5055708;28;20709;-75
2021/12/11 01:48:45;;;;;;;27.50;17.13;;;3.90;99.90;;;;;;5053244;28;20207;-75
2021/12/11 01:51:36;;;;;;;32.03;19.05;;;3.80;99.90;;;;;;5055921;28;20244;-75
2021/12/11 01:54:26;;;;;;;27.88;18.92;;;3.80;99.90;;;;;;5050353;28;20208;-75
2021/12/11 01:57:19;;;;;;;36.88;19.02;;;3.80;99.90;;;;;;5057839;28;20584;-74
2021/12/11 02:00:12;;;;;;;33.10;18.08;;;3.80;99.90;;;;;;5046485;28;20208;-75
2021/12/11 02:03:00;;;;;;;32.33;18.60;;;3.80;99.90;;;;;;5047393;28;20205;-74
2021/12/11 02:05:46;;;;;;;32.33;19.13;;;3.70;99.90;;;;;;5052847;28;20518;-75
2021/12/11 02:08:35;;;;;;;33.35;20.13;;;3.60;99.90;;;;;;5050711;28;20220;-76
2021/12/11 02:11:23;;;;;;;34.65;19.85;;;3.50;99.90;;;;;;5052921;28;20236;-76
2021/12/11 02:14:12;;;;;;;37.80;19.23;;;3.50;99.90;;;;;;5044780;28;20248;-74
2021/12/11 02:16:59;;;;;;;33.88;20.35;;;3.50;99.90;;;;;;5051814;28;20201;-74
2021/12/11 02:19:48;;;;;;;32.70;19.70;;;3.50;99.90;;;;;;5059833;28;20335;-75
2021/12/11 02:22:41;;;;;;;30.67;17.90;;;3.50;99.90;;;;;;5044904;28;20209;-75
2021/12/11 02:25:30;;;;;;;39.03;20.77;;;3.40;99.90;;;;;;5052449;28;20205;-75
2021/12/11 02:28:20;;;;;;;34.60;19.90;;;3.50;99.90;;;;;;5053623;28;20201;-75
2021/12/11 02:31:19;;;;;;;33.50;20.15;;;3.60;99.90;;;;;;5049952;28;20229;-75
2021/12/11 02:34:10;;;;;;;34.60;19.95;;;3.60;99.90;;;;;;5049051;28;20200;-75
2021/12/11 02:36:59;;;;;;;36.35;20.80;;;3.70;99.90;;;;;;5049910;28;20589;-75
2021/12/11 02:39:51;;;;;;;36.13;20.50;;;3.70;99.90;;;;;;5054687;28;20220;-75
2021/12/11 02:42:40;;;;;;;36.60;21.95;;;3.70;99.90;;;;;;5052614;28;20212;-75
2021/12/11 02:45:30;;;;;;;35.47;21.00;;;3.70;99.90;;;;;;5046163;28;20269;-75
2021/12/11 02:48:19;;;;;;;36.40;21.23;;;3.70;99.90;;;;;;5049015;28;20200;-75
2021/12/11 02:51:15;;;;;;;31.02;19.80;;;3.80;99.90;;;;;;5048717;28;20281;-74
2021/12/11 02:54:05;;;;;;;35.10;21.00;;;3.80;99.90;;;;;;5058157;28;20203;-74
2021/12/11 02:56:56;;;;;;;33.00;19.65;;;3.80;99.90;;;;;;5049349;28;20196;-75
2021/12/11 02:59:44;;;;;;;37.67;20.20;;;3.80;99.90;;;;;;5053174;28;20196;-75
2021/12/11 03:02:30;;;;;;;31.55;21.23;;;3.80;99.90;;;;;;5046015;28;20215;-75
2021/12/11 03:05:22;;;;;;;36.60;21.85;;;3.90;99.90;;;;;;5053154;28;20263;-75
2021/12/11 03:08:10;;;;;;;36.10;20.75;;;3.90;99.90;;;;;;5045897;28;20189;-74
2021/12/11 03:10:59;;;;;;;29.40;17.02;;;3.90;99.90;;;;;;5049791;28;20231;-75
2021/12/11 03:13:50;;;;;;;27.92;18.90;;;3.90;99.90;;;;;;5049205;28;20204;-75
2021/12/11 03:16:37;;;;;;;28.27;18.58;;;3.90;99.90;;;;;;5048713;28;20259;-75
2021/12/11 03:19:26;;;;;;;25.80;17.40;;;3.80;99.90;;;;;;5050892;28;20259;-75
2021/12/11 03:22:15;;;;;;;25.52;16.90;;;3.80;99.90;;;;;;5038609;28;20217;-75
2021/12/11 03:25:06;;;;;;;24.70;15.10;;;3.90;99.90;;;;;;5050517;28;20677;-75
2021/12/11 03:27:52;;;;;;;27.10;17.92;;;4.00;99.90;;;;;;5047534;28;20201;-74
2021/12/11 03:30:43;;;;;;;23.13;16.48;;;3.90;99.90;;;;;;5046696;28;20228;-74
2021/12/11 03:33:33;;;;;;;25.90;16.90;;;4.00;99.90;;;;;;5053967;28;20773;-75
2021/12/11 03:36:21;;;;;;;24.25;16.65;;;3.90;99.90;;;;;;5057191;28;20203;-75
2021/12/11 03:39:10;;;;;;;22.80;16.10;;;4.00;99.90;;;;;;5048165;28;20200;-74
2021/12/11 03:41:58;;;;;;;24.35;17.10;;;3.90;99.90;;;;;;5043493;28;20251;-76
2021/12/11 03:44:44;;;;;;;26.08;16.80;;;3.90;99.90;;;;;;5049383;28;20200;-75
2021/12/11 03:47:37;;;;;;;24.23;16.25;;;3.80;99.90;;;;;;5054780;28;20347;-75
2021/12/11 03:50:25;;;;;;;29.85;17.23;;;3.80;99.90;;;;;;5051238;28;20224;-74
2021/12/11 03:53:12;;;;;;;24.40;15.98;;;3.70;99.90;;;;;;5056833;28;20205;-74
2021/12/11 03:56:00;;;;;;;28.15;17.45;;;3.70;99.90;;;;;;5051636;28;20204;-75
2021/12/11 03:58:50;;;;;;;22.50;16.27;;;3.70;99.90;;;;;;5046780;28;20248;-75
2021/12/11 04:01:40;;;;;;;24.08;17.77;;;3.70;99.90;;;;;;5046307;28;20221;-75
2021/12/11 04:04:30;;;;;;;25.35;16.90;;;3.80;99.90;;;;;;5057553;28;20244;-75
2021/12/11 04:07:18;;;;;;;26.52;18.30;;;3.80;99.90;;;;;;5046177;28;20201;-75
2021/12/11 04:10:08;;;;;;;20.13;15.85;;;3.80;99.90;;;;;;5044511;28;20301;-75
2021/12/11 04:12:55;;;;;;;21.00;14.75;;;3.80;99.90;;;;;;5054596;28;20330;-75
2021/12/11 04:15:43;;;;;;;21.67;14.80;;;3.80;99.90;;;;;;5048514;28;20208;-75
2021/12/11 04:18:29;;;;;;;22.33;15.05;;;3.80;99.90;;;;;;5048138;28;20200;-75
2021/12/11 04:21:17;;;;;;;22.50;16.45;;;3.70;99.90;;;;;;5047746;28;20224;-75
2021/12/11 04:24:06;;;;;;;25.58;18.05;;;3.70;99.90;;;;;;5049533;28;20251;-75
2021/12/11 04:26:53;;;;;;;25.83;17.50;;;3.70;99.90;;;;;;5048620;28;20204;-74
2021/12/11 04:29:39;;;;;;;25.15;15.10;;;3.70;99.90;;;;;;5044776;28;20225;-74
2021/12/11 04:32:28;;;;;;;24.70;16.63;;;3.60;99.90;;;;;;5051035;28;20205;-75
2021/12/11 04:35:15;;;;;;;21.40;15.20;;;3.60;99.90;;;;;;5047254;28;20193;-75
2021/12/11 04:38:06;;;;;;;28.67;17.92;;;3.70;99.90;;;;;;5051209;28;20208;-75
2021/12/11 04:40:56;;;;;;;25.27;17.33;;;3.70;99.90;;;;;;5045263;28;20218;-74
2021/12/11 04:43:42;;;;;;;23.17;16.90;;;3.70;99.90;;;;;;5053785;28;20201;-75
2021/12/11 04:46:27;;;;;;;21.67;15.38;;;3.70;99.90;;;;;;5050507;28;20204;-75
2021/12/11 04:49:20;;;;;;;24.15;16.63;;;3.70;99.90;;;;;;5043791;28;20216;-75
2021/12/11 04:52:17;;;;;;;20.45;15.82;;;3.70;99.90;;;;;;5052784;28;20586;-75
2021/12/11 04:55:12;;;;;;;21.52;15.60;;;3.70;99.90;;;;;;5048403;28;20686;-75
2021/12/11 04:58:26;;;;;;;23.83;17.20;;;3.70;99.90;;;;;;5044524;28;20196;-75
2021/12/11 05:01:30;;;;;;;26.95;17.65;;;3.70;99.90;;;;;;5047016;28;20268;-74
2021/12/11 05:07:28;;;;;;;25.00;17.63;;;3.60;99.90;;;;;;5049551;28;20748;-74
2021/12/11 05:10:21;;;;;;;25.58;17.92;;;3.60;99.90;;;;;;5042812;28;20228;-75
2021/12/11 05:13:07;;;;;;;27.35;18.45;;;3.50;99.90;;;;;;5057058;28;20236;-74
2021/12/11 05:15:57;;;;;;;29.20;18.52;;;3.50;99.90;;;;;;5053416;28;20212;-75
2021/12/11 05:18:44;;;;;;;24.77;16.70;;;3.50;99.90;;;;;;5049970;28;20455;-74
2021/12/11 05:21:30;;;;;;;22.95;16.48;;;3.60;99.90;;;;;;5052884;28;20236;-74
2021/12/11 05:24:17;;;;;;;24.58;17.80;;;3.60;99.90;;;;;;5055950;28;20336;-74
2021/12/11 05:27:04;;;;;;;25.38;16.15;;;3.60;99.90;;;;;;5053685;28;20212;-75
2021/12/11 05:29:51;;;;;;;25.35;17.23;;;3.70;99.90;;;;;;5043485;28;20315;-75
2021/12/11 05:32:37;;;;;;;21.00;15.73;;;3.70;99.90;;;;;;5049147;28;20682;-75
2021/12/11 05:35:23;;;;;;;25.15;16.52;;;3.70;99.90;;;;;;5055199;28;20204;-75
2021/12/11 05:38:13;;;;;;;29.63;16.92;;;3.70;99.90;;;;;;5053297;28;20207;-75
2021/12/11 05:41:02;;;;;;;19.98;15.13;;;3.80;99.90;;;;;;5050434;28;20321;-74
2021/12/11 05:43:54;;;;;;;18.23;14.23;;;3.80;99.90;;;;;;5060907;28;20224;-75
2021/12/11 05:46:41;;;;;;;26.30;16.23;;;3.90;99.90;;;;;;5062912;28;20216;-75
2021/12/11 05:49:28;;;;;;;25.58;15.98;;;3.90;99.90;;;;;;5055423;28;20205;-75
2021/12/11 05:52:14;;;;;;;21.70;15.77;;;3.90;99.90;;;;;;5050609;28;20213;-75
2021/12/11 05:55:00;;;;;;;18.42;14.15;;;3.90;99.90;;;;;;5053029;28;20204;-74
2021/12/11 05:57:52;;;;;;;21.42;15.10;;;4.00;99.90;;;;;;5058435;28;20203;-75
2021/12/11 06:00:42;;;;;;;23.67;15.90;;;4.00;99.90;;;;;;5054946;28;20220;-75
2021/12/11 06:03:28;;;;;;;27.27;16.98;;;4.00;99.90;;;;;;5063254;28;20565;-74
2021/12/11 06:06:14;;;;;;;21.67;16.02;;;4.10;99.90;;;;;;5067544;28;20199;-75
2021/12/11 06:09:00;;;;;;;20.25;15.15;;;4.20;99.90;;;;;;5048855;28;20267;-75
2021/12/11 06:11:49;;;;;;;21.65;16.80;;;4.20;99.90;;;;;;5064945;28;20362;-76
2021/12/11 06:14:35;;;;;;;22.33;16.75;;;4.20;99.90;;;;;;5058301;28;20341;-74
2021/12/11 06:17:25;;;;;;;22.50;16.73;;;4.30;99.90;;;;;;5055838;28;20204;-74
2021/12/11 06:20:14;;;;;;;17.30;13.88;;;4.20;99.90;;;;;;5048206;28;20251;-75
2021/12/11 06:22:59;;;;;;;19.27;15.07;;;4.20;99.90;;;;;;5056230;28;20243;-74
2021/12/11 06:25:46;;;;;;;22.73;15.75;;;4.20;99.90;;;;;;5063439;28;20204;-75
2021/12/11 06:28:32;;;;;;;24.00;16.35;;;4.20;99.90;;;;;;5052848;28;20204;-75
2021/12/11 06:31:19;;;;;;;26.67;16.83;;;4.10;99.90;;;;;;5067879;28;20223;-75
2021/12/11 06:34:06;;;;;;;25.98;16.88;;;4.10;99.90;;;;;;5055857;28;20196;-75
2021/12/11 06:36:53;;;;;;;24.00;16.77;;;4.10;99.90;;;;;;5052250;28;20204;-75
2021/12/11 06:39:38;;;;;;;26.27;17.60;;;4.10;99.90;;;;;;5058393;28;20262;-75
2021/12/11 06:42:24;;;;;;;24.80;17.85;;;4.10;99.90;;;;;;5050303;28;20267;-74
2021/12/11 06:45:09;;;;;;;23.30;16.15;;;4.20;99.90;;;;;;5058052;28;20342;-75
2021/12/11 06:47:56;;;;;;;25.42;17.75;;;4.20;99.90;;;;;;5042107;28;20199;-75
2021/12/11 06:50:43;;;;;;;35.72;24.77;;;4.20;99.90;;;;;;5057589;28;20232;-75
2021/12/11 06:53:34;;;;;;;32.38;22.35;;;4.10;99.90;;;;;;5059230;28;20212;-75
2021/12/11 06:56:22;;;;;;;30.67;19.83;;;4.00;99.90;;;;;;5050979;28;20201;-75
2021/12/11 06:59:08;;;;;;;27.38;18.35;;;4.10;99.90;;;;;;5045472;28;20204;-75
2021/12/11 07:01:54;;;;;;;32.67;19.88;;;4.10;99.90;;;;;;5043620;28;20693;-75
2021/12/11 07:04:40;;;;;;;29.98;19.15;;;4.10;99.90;;;;;;5061542;28;20744;-75
2021/12/11 07:07:32;;;;;;;22.15;16.42;;;4.20;99.90;;;;;;5048311;28;20710;-75
2021/12/11 07:10:20;;;;;;;27.75;18.67;;;4.10;99.90;;;;;;5061242;28;20227;-74
2021/12/11 07:13:06;;;;;;;26.92;17.70;;;4.20;99.90;;;;;;5031632;28;20200;-75
2021/12/11 07:15:55;;;;;;;26.50;17.33;;;4.30;99.90;;;;;;5057291;28;20685;-75
2021/12/11 07:18:41;;;;;;;25.65;18.02;;;4.30;99.90;;;;;;5043683;28;20205;-75
2021/12/11 07:21:27;;;;;;;33.28;19.65;;;4.20;99.90;;;;;;5062368;28;20258;-74
2021/12/11 07:24:15;;;;;;;29.23;20.42;;;4.10;99.90;;;;;;5054165;28;20250;-75
2021/12/11 07:27:04;;;;;;;28.90;20.55;;;4.00;99.90;;;;;;5037530;28;20209;-75
2021/12/11 07:29:49;;;;;;;27.55;20.92;;;4.00;99.90;;;;;;5067539;28;20717;-75
2021/12/11 07:32:34;;;;;;;29.85;21.10;;;3.90;99.90;;;;;;5057539;28;20241;-75
2021/12/11 07:35:20;;;;;;;30.65;21.10;;;3.90;99.90;;;;;;5066785;28;20331;-73
2021/12/11 07:38:07;;;;;;;29.98;21.00;;;3.90;99.90;;;;;;5050000;28;20204;-75
2021/12/11 07:40:58;;;;;;;28.33;19.88;;;3.90;99.90;;;;;;5062298;28;20207;-75
2021/12/11 07:43:46;;;;;;;29.30;18.95;;;3.90;99.90;;;;;;5060242;28;20196;-75
2021/12/11 07:46:33;;;;;;;28.52;20.33;;;3.90;99.90;;;;;;5051465;28;20240;-75
2021/12/11 07:49:19;;;;;;;29.20;20.95;;;3.90;99.90;;;;;;5060955;28;20208;-75
2021/12/11 07:52:06;;;;;;;30.70;21.63;;;4.00;99.90;;;;;;5086102;22;20235;-70
2021/12/11 07:54:52;;;;;;;27.10;18.63;;;4.10;99.90;;;;;;5079869;28;20204;-70
2021/12/11 07:57:39;;;;;;;34.05;20.17;;;4.20;99.90;;;;;;5078843;28;20691;-70
2021/12/11 08:00:27;;;;;;;30.42;20.27;;;4.10;99.90;;;;;;5071561;28;20232;-70
2021/12/11 08:03:15;;;;;;;28.80;19.73;;;4.10;99.90;;;;;;5053237;28;20259;-70
2021/12/11 08:06:01;;;;;;;30.88;20.80;;;4.10;99.90;;;;;;5051877;28;20340;-68
2021/12/11 08:08:47;;;;;;;30.55;20.50;;;4.10;99.90;;;;;;5070624;28;20286;-70
2021/12/11 08:11:33;;;;;;;27.58;19.42;;;4.20;99.90;;;;;;5068693;28;20291;-70
2021/12/11 08:14:22;;;;;;;28.17;19.30;;;4.20;99.90;;;;;;5056032;28;20208;-69
2021/12/11 08:17:08;;;;;;;27.75;19.80;;;4.20;99.90;;;;;;5051763;28;20204;-70
2021/12/11 08:19:53;;;;;;;35.20;20.00;;;4.20;99.90;;;;;;5058641;28;20281;-70
2021/12/11 08:22:40;;;;;;;30.60;19.70;;;4.20;99.90;;;;;;5065152;28;20212;-70
2021/12/11 08:25:28;;;;;;;28.83;20.27;;;4.20;99.90;;;;;;5056155;28;20721;-70
2021/12/11 08:28:21;;;;;;;33.28;21.88;;;4.20;99.90;;;;;;5066583;28;20273;-70
2021/12/11 08:31:08;;;;;;;35.85;21.67;;;4.20;99.90;;;;;;5064383;28;20215;-70
2021/12/11 08:33:54;;;;;;;29.92;20.23;;;4.30;99.90;;;;;;5054161;28;20204;-70
2021/12/11 08:36:40;;;;;;;32.85;22.75;;;4.30;99.90;;;;;;5056081;28;20311;-70
2021/12/11 08:39:27;;;;;;;34.67;22.33;;;4.30;99.90;;;;;;5064586;28;20208;-70
2021/12/11 08:42:18;;;;;;;33.40;21.60;;;4.40;99.90;;;;;;5054611;28;20276;-70
2021/12/11 08:45:09;;;;;;;29.20;21.92;;;4.30;99.90;;;;;;5055884;28;20216;-69
2021/12/11 08:48:00;;;;;;;33.22;21.77;;;4.40;99.90;;;;;;5064109;28;20204;-70
2021/12/11 08:50:48;;;;;;;30.08;21.30;;;4.40;99.90;;;;;;5058619;28;20229;-69
2021/12/11 08:53:34;;;;;;;28.83;21.60;;;4.50;99.90;;;;;;5060486;28;20215;-70
2021/12/11 08:56:21;;;;;;;30.48;21.48;;;4.50;99.90;;;;;;5049129;28;20282;-69
2021/12/11 08:59:09;;;;;;;27.33;19.63;;;4.50;99.90;;;;;;5053746;28;20972;-69
2021/12/11 09:01:59;;;;;;;29.73;20.58;;;4.60;99.90;;;;;;5055063;28;20204;-69
2021/12/11 09:04:53;;;;;;;30.63;20.42;;;4.60;99.90;;;;;;5054220;28;20205;-69
2021/12/11 09:07:43;;;;;;;29.52;21.15;;;4.70;99.90;;;;;;5044627;28;20267;-68
2021/12/11 09:10:34;;;;;;;30.90;21.02;;;4.70;99.90;;;;;;5066897;28;20224;-69
2021/12/11 09:13:22;;;;;;;31.30;22.55;;;4.70;99.90;;;;;;5056347;28;20220;-70
2021/12/11 09:16:14;;;;;;;38.38;24.20;;;4.70;99.90;;;;;;5053034;28;20205;-70
2021/12/11 09:19:05;;;;;;;30.58;22.30;;;4.70;99.90;;;;;;5063281;28;20212;-69
2021/12/11 09:21:58;;;;;;;33.42;22.90;;;4.70;99.90;;;;;;5070494;28;20217;-67
2021/12/11 09:24:48;;;;;;;30.85;21.42;;;4.60;99.90;;;;;;5044722;28;20609;-69
2021/12/11 09:27:40;;;;;;;33.72;23.02;;;4.70;99.90;;;;;;5056522;28;20209;-69
2021/12/11 09:30:32;;;;;;;37.25;22.67;;;4.80;99.90;;;;;;5061962;28;20316;-69
2021/12/11 09:33:20;;;;;;;34.17;23.13;;;4.90;99.90;;;;;;5059717;28;20568;-69
2021/12/11 09:36:09;;;;;;;34.40;23.10;;;4.90;99.90;;;;;;5039046;28;20204;-70
2021/12/11 09:39:05;;;;;;;34.10;23.52;;;4.80;99.90;;;;;;5053750;28;20578;-68
2021/12/11 09:41:50;;;;;;;36.03;23.02;;;4.90;99.90;;;;;;5073119;28;20579;-69
2021/12/11 09:44:42;;;;;;;34.95;23.92;;;4.90;99.90;;;;;;5056113;28;20218;-68
2021/12/11 09:47:36;;;;;;;38.30;24.25;;;4.90;99.90;;;;;;5048974;28;20192;-70
2021/12/11 09:50:30;;;;;;;34.83;22.80;;;4.90;99.90;;;;;;5049602;28;20693;-69
2021/12/11 09:53:19;;;;;;;33.45;21.92;;;4.90;99.90;;;;;;5053189;28;20192;-69
2021/12/11 09:56:08;;;;;;;33.78;22.08;;;4.90;99.90;;;;;;5047800;28;20206;-70
2021/12/11 09:58:54;;;;;;;32.95;21.83;;;4.90;99.90;;;;;;5057348;28;20246;-70
2021/12/11 10:01:43;;;;;;;32.25;22.85;;;4.90;99.90;;;;;;5073094;28;20266;-69
2021/12/11 10:04:34;;;;;;;28.20;21.27;;;5.00;99.90;;;;;;5053088;28;20259;-70
2021/12/11 10:07:28;;;;;;;29.33;22.65;;;4.90;99.90;;;;;;5047444;28;20205;-70
2021/12/11 10:10:17;;;;;;;32.22;23.70;;;5.00;99.90;;;;;;5055254;28;20346;-70
2021/12/11 10:13:03;;;;;;;31.23;20.05;;;5.10;99.90;;;;;;5049754;28;20220;-69
2021/12/11 10:15:49;;;;;;;32.47;21.13;;;5.20;99.90;;;;;;5051553;28;20216;-70
2021/12/11 10:18:37;;;;;;;34.15;22.95;;;5.20;99.90;;;;;;5052846;28;20562;-70
2021/12/11 10:21:28;;;;;;;32.03;21.95;;;5.20;99.90;;;;;;5051782;28;20351;-69
2021/12/11 10:24:19;;;;;;;35.53;24.08;;;5.30;99.90;;;;;;5051211;28;20201;-69
2021/12/11 10:27:08;;;;;;;35.33;22.23;;;5.30;99.90;;;;;;5049020;28;20203;-69
2021/12/11 10:29:56;;;;;;;30.50;21.35;;;5.30;99.90;;;;;;5061401;28;20200;-68
2021/12/11 10:32:42;;;;;;;31.73;22.25;;;5.30;99.90;;;;;;5072129;28;20700;-68
2021/12/11 10:35:33;;;;;;;28.80;19.80;;;5.30;99.90;;;;;;5043622;28;20220;-68
2021/12/11 10:38:20;;;;;;;30.10;20.10;;;5.30;99.90;;;;;;5052546;28;20574;-70
2021/12/11 10:41:08;;;;;;;29.80;20.80;;;5.30;99.90;;;;;;5048943;28;20233;-69
2021/12/11 10:43:57;;;;;;;30.95;20.33;;;5.40;99.90;;;;;;5045852;28;20576;-69
2021/12/11 10:46:48;;;;;;;30.92;21.33;;;5.40;99.90;;;;;;5051631;28;20221;-69
2021/12/11 10:49:36;;;;;;;31.40;19.92;;;5.40;99.90;;;;;;5053744;28;20564;-70
2021/12/11 10:52:27;;;;;;;29.98;20.27;;;5.50;99.90;;;;;;5063705;28;20274;-70
2021/12/11 10:55:17;;;;;;;29.42;21.60;;;5.50;99.90;;;;;;5056725;28;20204;-70
2021/12/11 10:58:09;;;;;;;26.65;19.90;;;5.50;99.90;;;;;;5055552;28;20693;-69
2021/12/11 11:00:56;;;;;;;32.42;19.65;;;5.60;99.90;;;;;;5052365;28;20240;-70
2021/12/11 11:03:48;;;;;;;27.55;19.73;;;5.60;99.90;;;;;;5052630;28;20201;-69
2021/12/11 11:06:34;;;;;;;30.08;20.27;;;5.60;99.90;;;;;;5055376;28;20209;-70
2021/12/11 11:09:23;;;;;;;27.15;19.80;;;5.50;99.90;;;;;;5044925;28;20332;-68
2021/12/11 11:12:13;;;;;;;29.33;19.70;;;5.50;99.90;;;;;;5043370;28;20270;-70
2021/12/11 11:14:59;;;;;;;28.30;19.17;;;5.60;99.90;;;;;;5044534;28;20204;-69
2021/12/11 11:17:45;;;;;;;30.42;20.08;;;5.60;99.90;;;;;;5050944;28;20685;-69
2021/12/11 11:20:33;;;;;;;29.45;18.30;;;5.70;99.90;;;;;;5052823;28;20724;-69
2021/12/11 11:23:19;;;;;;;27.55;18.77;;;5.80;99.90;;;;;;5056581;28;20253;-69
2021/12/11 11:26:11;;;;;;;26.67;19.10;;;5.80;99.90;;;;;;5059325;28;20208;-69
2021/12/11 11:28:59;;;;;;;32.13;19.17;;;5.80;99.90;;;;;;5047050;28;20205;-70
2021/12/11 11:31:49;;;;;;;30.67;20.50;;;5.70;99.90;;;;;;5049627;28;20253;-69
2021/12/11 11:34:40;;;;;;;25.08;18.80;;;5.70;99.90;;;;;;5061920;28;20317;-70
2021/12/11 11:37:26;;;;;;;27.50;17.02;;;5.80;99.90;;;;;;5062752;28;20305;-70
2021/12/11 11:40:16;;;;;;;26.80;15.73;;;5.80;99.90;;;;;;5066163;28;20286;-69
2021/12/11 11:43:05;;;;;;;26.58;17.33;;;5.80;99.90;;;;;;5035248;28;20561;-69
2021/12/11 11:45:52;;;;;;;25.95;18.15;;;5.70;99.90;;;;;;5054384;28;20319;-70
2021/12/11 11:48:41;;;;;;;26.92;17.73;;;5.70;99.90;;;;;;5075801;28;20688;-69
2021/12/11 11:51:33;;;;;;;25.25;17.35;;;5.70;99.90;;;;;;5075622;28;20228;-69
2021/12/11 11:54:23;;;;;;;31.92;19.48;;;5.80;99.90;;;;;;5052909;28;20209;-69
2021/12/11 11:57:12;;;;;;;25.58;15.50;;;5.80;99.90;;;;;;5056532;28;20196;-69
2021/12/11 12:00:04;;;;;;;24.92;16.88;;;5.80;99.90;;;;;;5049259;28;20701;-70
2021/12/11 12:02:50;;;;;;;26.00;20.08;;;5.80;99.90;;;;;;5052023;28;20315;-69
2021/12/11 12:05:37;;;;;;;22.38;16.25;;;5.80;99.90;;;;;;5064921;28;20681;-69
2021/12/11 12:08:22;;;;;;;25.42;16.35;;;5.90;99.90;;;;;;5075162;28;20200;-69
2021/12/11 12:11:08;;;;;;;27.77;17.60;;;5.90;99.90;;;;;;5075335;28;20339;-70
2021/12/11 12:13:54;;;;;;;21.58;15.10;;;5.90;99.90;;;;;;5035625;28;20205;-68
2021/12/11 12:16:44;;;;;;;24.55;16.42;;;6.00;99.90;;;;;;5035709;28;20283;-70
2021/12/11 12:19:30;;;;;;;27.95;16.83;;;6.00;99.90;;;;;;5035265;28;20201;-69
2021/12/11 12:22:18;;;;;;;21.98;15.68;;;5.90;99.90;;;;;;5039923;28;20216;-68
2021/12/11 12:25:05;;;;;;;24.80;14.38;;;6.10;99.90;;;;;;5037226;28;20232;-69
2021/12/11 12:27:52;;;;;;;24.98;15.00;;;6.50;99.90;;;;;;5064481;28;20203;-70
2021/12/11 12:30:43;;;;;;;27.45;14.70;;;6.90;99.90;;;;;;5056094;28;20280;-69
2021/12/11 12:33:30;;;;;;;18.63;14.60;;;7.10;99.90;;;;;;5035839;28;20300;-70
2021/12/11 12:36:16;;;;;;;19.98;13.80;;;7.60;99.90;;;;;;5043976;28;20202;-69
2021/12/11 12:39:02;;;;;;;23.95;15.10;;;8.00;99.90;;;;;;5046458;28;20247;-70
2021/12/11 12:41:57;;;;;;;21.75;13.10;;;8.70;99.90;;;;;;5037652;28;20249;-70
2021/12/11 12:44:43;;;;;;;21.15;12.85;;;9.60;99.90;;;;;;5034780;28;20439;-70
2021/12/11 12:47:31;;;;;;;19.02;13.43;;;10.00;99.90;;;;;;5034492;28;20226;-69
2021/12/11 12:50:22;;;;;;;17.40;12.57;;;10.70;99.90;;;;;;5033941;28;20320;-70
2021/12/11 12:53:08;;;;;;;20.80;13.80;;;11.60;99.90;;;;;;5045011;28;20475;-69
2021/12/11 12:55:56;;;;;;;18.90;12.73;;;12.70;80.10;;;;;;5033900;28;20926;-70
2021/12/11 12:58:46;;;;;;;22.10;13.70;;;13.40;74.50;;;;;;5066691;28;20412;-70
2021/12/11 13:01:37;;;;;;;21.53;13.50;;;13.20;74.70;;;;;;5047674;28;20463;-70
2021/12/11 13:04:26;;;;;;;16.53;12.37;;;12.90;76.90;;;;;;5045468;28;20443;-70
2021/12/11 13:07:15;;;;;;;18.93;14.27;;;12.60;75.90;;;;;;5037725;28;20572;-69
2021/12/11 13:10:05;;;;;;;18.83;13.83;;;11.30;83.30;;;;;;5034827;28;20520;-69
2021/12/11 13:12:52;;;;;;;18.20;12.30;;;10.10;92.00;;;;;;5037133;28;20475;-69
2021/12/11 13:15:41;;;;;;;19.07;13.80;;;9.10;99.90;;;;;;5041427;28;20398;-68
2021/12/11 13:18:29;;;;;;;21.80;14.45;;;8.20;99.90;;;;;;5043888;28;20474;-69
2021/12/11 13:21:20;;;;;;;20.03;14.30;;;7.80;99.90;;;;;;5042298;28;20232;-69
2021/12/11 13:24:11;;;;;;;21.83;13.77;;;7.40;99.90;;;;;;5051691;28;20534;-69
2021/12/11 13:27:01;;;;;;;24.38;14.90;;;7.20;99.90;;;;;;5038286;28;20425;-69
2021/12/11 13:29:52;;;;;;;21.75;15.07;;;7.10;99.90;;;;;;5053768;28;20275;-69
2021/12/11 13:32:39;;;;;;;23.40;15.38;;;7.00;99.90;;;;;;5046975;28;20240;-68
2021/12/11 13:35:27;;;;;;;27.20;17.65;;;6.80;99.90;;;;;;5032962;28;20209;-69
2021/12/11 13:38:15;;;;;;;24.25;16.10;;;6.70;99.90;;;;;;5053304;28;20211;-68
2021/12/11 13:41:06;;;;;;;24.70;16.33;;;6.60;99.90;;;;;;5062661;28;20233;-68
2021/12/11 13:43:52;;;;;;;27.52;17.27;;;6.40;99.90;;;;;;5044394;28;20219;-68
2021/12/11 13:46:38;;;;;;;23.95;17.80;;;6.30;99.90;;;;;;5055453;28;20209;-69
2021/12/11 13:49:24;;;;;;;26.33;16.85;;;6.30;99.90;;;;;;5052461;28;20212;-69
2021/12/11 13:52:10;;;;;;;25.80;16.58;;;6.30;99.90;;;;;;5064637;22;20234;-73
2021/12/11 13:54:56;;;;;;;24.20;16.77;;;6.30;99.90;;;;;;5052149;28;20196;-74
2021/12/11 13:57:44;;;;;;;27.75;17.92;;;6.30;99.90;;;;;;5057517;28;20538;-74
2021/12/11 14:00:34;;;;;;;28.63;18.13;;;6.30;99.90;;;;;;5050920;28;20213;-75
2021/12/11 14:03:23;;;;;;;26.98;16.73;;;6.30;99.90;;;;;;5051604;28;20205;-74
2021/12/11 14:06:10;;;;;;;26.67;17.77;;;6.30;99.90;;;;;;5051937;28;20279;-74
2021/12/11 14:09:06;;;;;;;26.65;18.10;;;6.30;99.90;;;;;;5037540;28;20209;-74
2021/12/11 14:11:52;;;;;;;26.10;17.10;;;6.20;99.90;;;;;;5044503;28;20228;-74
2021/12/11 14:14:42;;;;;;;24.65;16.35;;;6.10;99.90;;;;;;5029749;28;20198;-75
2021/12/11 14:17:29;;;;;;;28.10;17.35;;;6.20;99.90;;;;;;5048503;28;20201;-74
2021/12/11 14:20:17;;;;;;;34.92;17.65;;;6.10;99.90;;;;;;5042726;28;20221;-74
2021/12/11 14:23:06;;;;;;;25.75;16.90;;;6.10;99.90;;;;;;5031357;28;20281;-74
2021/12/11 14:25:53;;;;;;;25.23;17.98;;;6.00;99.90;;;;;;5018608;28;20208;-74
2021/12/11 14:28:40;;;;;;;29.33;17.05;;;6.00;99.90;;;;;;5044501;28;20246;-75